AirNav   Air Wisconsin Up To $57,000 Bonus
 
 1079 users online  

TX1 Aero Estates Seaplane Base
Frankston, Texas, USA

GOING TO FRANKSTON?


FAA INFORMATION EFFECTIVE 22 APRIL 2021

Location

FAA Identifier: TX1
Lat/Long: 32-04-45.0300N 095-25-56.9300W
32-04.750500N 095-25.948833W
32.0791750,-95.4324806
(estimated)
Elevation: 345 ft. / 105 m (estimated)
From city: 3 miles NE of FRANKSTON, TX
Time zone: UTC -5 (UTC -6 during Standard Time)
Zip code: 75763

Seaplane Base Operations

Seaplane Base use: Open to the public
Activation date: 03/2018
Control tower: no
ARTCC: FORT WORTH CENTER
FSS: FORT WORTH FLIGHT SERVICE STATION
NOTAMs facility: FTW (NOTAM-D service available)
Attendance: UNATNDD
Wind indicator: yes
Segmented circle: no

Seaplane Base Communications

CTAF: 122.9
WX ASOS at TYR (17 nm N): PHONE 903-535-9105
WX AWOS-3 at JSO (17 nm SE): 119.075 (903-586-0124)

Nearby radio navigation aids

VOR radial/distance  VOR name  Freq  Var
FZTr081/5.0FRANKSTON VOR/DME111.4006E
TYRr179/16.7TYLER VOR/DME114.2006E

 
NDB name  Hdg/Dist  Freq  Var  ID
PALESTINE033/22.537504EPSN .--. ... -.
CROSSROADS080/26.721508ECSZ -.-. ... --..
AMBASSADOR201/34.440407EABG .- -... --.

Seaplane Base Services

Runway Information

Runway 17W/35W

Dimensions: 5268 x 300 ft. / 1606 x 91 m
Surface: water
RUNWAY 17W  RUNWAY 35W
Traffic pattern: leftleft

Seaplane Base Ownership and Management from official FAA records

Ownership: Privately-owned
Owner: AERO ESTATES POA
11668 TAILSPIN TRAIL
FRANKSTON, TX 75763
Phone (817) 798-7757
DENISE WALKER, SECRETARY, POAAE (HOMEOWNERS ASSOC).
Manager: GARNET MCCLURE
11685 PILOT LANE
FRANKSTON, TX 75763
Phone 903-617-7860

Seaplane Base Operational Statistics

Aircraft based on the field: 5
Single engine airplanes: 5
    
Aircraft operations: avg 46/month *
91% local general aviation
9% transient general aviation
* for 12-month period ending 30 March 2019

Additional Remarks

FOR CD CTC FORT WORTH ARTCC AT 817-858-7584.

Instrument Procedures

There are no published instrument procedures at TX1.

Some nearby airports with instrument procedures:

KTYR - Tyler Pounds Regional Airport (17 nm N)
KJSO - Cherokee County Airport (17 nm SE)
F44 - Athens Municipal Airport (21 nm W)
KPSN - Palestine Municipal Airport (23 nm SW)
KRFI - Rusk County Airport (30 nm E)
 
Loc | Ops | Rwys | IFR | FBO | Links
Com | Nav | Svcs | Stats | Notes
Aerial photo
No photo
 
Airport distance calculator
Flying to Aero Estates Seaplane Base? Find the distance to fly.

From to TX1

Sunrise and sunset
Times for 15-May-2021
 Local
(UTC-5)
 Zulu
(UTC)
Morning civil twilight05:5810:58
Sunrise06:2511:25
Sunset20:1101:11
Evening civil twilight20:3801:38

Current date and time
Zulu (UTC)  15-May-2021 17:30:19
Local (UTC-5)  15-May-2021 12:30:19
 
METAR
KJSO 
17nm SE 
151715Z AUTO 17008G14KT 10SM SCT033 SCT041 BKN049 23/17 A3017 RMK AO2 T02410170
KTYR 
17nm N 
151653Z 18012KT 10SM BKN041 26/16 A3013 RMK AO2 SLP198 T02610156
KF44 
21nm W 
151715Z AUTO 18010G15KT 10SM SCT037 25/16 A3011 RMK AO2
KPSN 
23nm SW 
151715Z AUTO 18009KT 10SM SCT035 BKN050 25/17 A3014 RMK AO2
KRFI 
30nm E 
151715Z AUTO 15009KT 10SM BKN034 BKN045 OVC050 25/17 A3016 RMK AO2 T02510165
TAF
KTYR 
17nm N 
151124Z 1512/1612 15006KT P6SM BKN060 FM151500 17010KT P6SM SCT020 BKN050 FM151700 17011KT P6SM SCT035 BKN250 FM160100 16009KT P6SM BKN250 FM161000 16007KT P6SM BKN023
NOTAMs
Click for the latest NOTAMs
NOTAMs are issued by the DoD/FAA and will open in a separate window not controlled by AirNav.

 

 
 

Would you like to see your business listed on this page?

 If your business provides an interesting product or service to pilots, flight crews, aircraft, or users of the Aero Estates Seaplane Base, you should consider listing it here.  To start the listing process, click on the button below
 
Add a business
 

Other Pages about Aero Estates Seaplane Base

Update a link
 
Copyright © AirNav, LLC. All rights reserved. Privacy Policy  Contact